sensor_id;sensor_type;location;lat;lon;timestamp;pressure;altitude;pressure_sealevel;temperature;humidity
79138;BME280;68544;45.566;10.238;2023-04-16T00:01:14;99310.91;;;12.07;60.42
79138;BME280;68544;45.566;10.238;2023-04-16T00:03:39;99296.63;;;11.74;61.23
79138;BME280;68544;45.566;10.238;2023-04-16T00:06:05;99296.44;;;11.62;61.01
79138;BME280;68544;45.566;10.238;2023-04-16T00:08:30;99304.31;;;11.64;61.00
79138;BME280;68544;45.566;10.238;2023-04-16T00:10:55;99302.88;;;11.61;61.33
79138;BME280;68544;45.566;10.238;2023-04-16T00:13:21;99311.81;;;11.75;60.99
79138;BME280;68544;45.566;10.238;2023-04-16T00:15:47;99301.41;;;11.72;60.80
79138;BME280;68544;45.566;10.238;2023-04-16T00:18:12;99298.69;;;11.78;60.25
79138;BME280;68544;45.566;10.238;2023-04-16T00:20:38;99289.72;;;11.91;60.00
79138;BME280;68544;45.566;10.238;2023-04-16T00:23:03;99303.09;;;11.73;59.76
79138;BME280;68544;45.566;10.238;2023-04-16T00:25:28;99290.09;;;12.01;59.08
79138;BME280;68544;45.566;10.238;2023-04-16T00:27:54;99290.59;;;11.78;59.25
79138;BME280;68544;45.566;10.238;2023-04-16T00:30:21;99297.44;;;11.87;59.21
79138;BME280;68544;45.566;10.238;2023-04-16T00:32:46;99295.56;;;11.88;59.04
79138;BME280;68544;45.566;10.238;2023-04-16T00:35:12;99291.81;;;11.89;59.20
79138;BME280;68544;45.566;10.238;2023-04-16T00:37:37;99293.03;;;11.93;58.73
79138;BME280;68544;45.566;10.238;2023-04-16T00:40:03;99295.00;;;11.66;59.34
79138;BME280;68544;45.566;10.238;2023-04-16T00:42:28;99312.25;;;11.46;60.09
79138;BME280;68544;45.566;10.238;2023-04-16T00:44:53;99291.03;;;11.69;59.73
79138;BME280;68544;45.566;10.238;2023-04-16T00:47:19;99290.41;;;11.67;60.00
79138;BME280;68544;45.566;10.238;2023-04-16T00:49:45;99297.69;;;11.40;61.55
79138;BME280;68544;45.566;10.238;2023-04-16T00:52:10;99283.13;;;11.54;60.35
79138;BME280;68544;45.566;10.238;2023-04-16T00:54:36;99288.56;;;11.48;60.42
79138;BME280;68544;45.566;10.238;2023-04-16T00:57:01;99291.44;;;11.46;60.54
79138;BME280;68544;45.566;10.238;2023-04-16T00:59:27;99285.00;;;11.60;60.01
79138;BME280;68544;45.566;10.238;2023-04-16T01:01:53;99284.38;;;11.52;60.30
79138;BME280;68544;45.566;10.238;2023-04-16T01:04:18;99288.97;;;11.45;60.67
79138;BME280;68544;45.566;10.238;2023-04-16T01:06:44;99291.09;;;11.17;61.38
79138;BME280;68544;45.566;10.238;2023-04-16T01:09:10;99276.91;;;11.28;61.03
79138;BME280;68544;45.566;10.238;2023-04-16T01:11:36;99283.78;;;11.24;61.02
79138;BME280;68544;45.566;10.238;2023-04-16T01:14:02;99279.22;;;10.85;63.33
79138;BME280;68544;45.566;10.238;2023-04-16T01:16:27;99285.88;;;10.82;63.53
79138;BME280;68544;45.566;10.238;2023-04-16T01:18:52;99286.06;;;11.00;62.87
79138;BME280;68544;45.566;10.238;2023-04-16T01:21:18;99279.22;;;11.11;62.56
79138;BME280;68544;45.566;10.238;2023-04-16T01:23:43;99282.13;;;11.03;63.32
79138;BME280;68544;45.566;10.238;2023-04-16T01:26:08;99274.44;;;11.33;61.84
79138;BME280;68544;45.566;10.238;2023-04-16T01:28:34;99276.88;;;11.60;60.40
79138;BME280;68544;45.566;10.238;2023-04-16T01:31:00;99281.88;;;11.70;60.07
79138;BME280;68544;45.566;10.238;2023-04-16T01:33:25;99277.34;;;11.25;62.27
79138;BME280;68544;45.566;10.238;2023-04-16T01:35:50;99280.69;;;11.20;62.47
79138;BME280;68544;45.566;10.238;2023-04-16T01:38:16;99290.84;;;10.98;63.35
79138;BME280;68544;45.566;10.238;2023-04-16T01:40:41;99296.88;;;11.07;63.26
79138;BME280;68544;45.566;10.238;2023-04-16T01:43:07;99289.41;;;11.22;62.76
79138;BME280;68544;45.566;10.238;2023-04-16T01:45:33;99293.78;;;11.17;62.97
79138;BME280;68544;45.566;10.238;2023-04-16T01:47:59;99299.19;;;11.10;63.40
79138;BME280;68544;45.566;10.238;2023-04-16T01:50:25;99297.72;;;11.01;63.12
79138;BME280;68544;45.566;10.238;2023-04-16T01:52:50;99292.31;;;11.07;63.00
79138;BME280;68544;45.566;10.238;2023-04-16T01:55:16;99293.16;;;11.01;63.34
79138;BME280;68544;45.566;10.238;2023-04-16T01:57:41;99296.47;;;11.10;63.27
79138;BME280;68544;45.566;10.238;2023-04-16T02:00:07;99293.56;;;11.11;63.11
79138;BME280;68544;45.566;10.238;2023-04-16T02:02:33;99290.88;;;11.11;63.40
79138;BME280;68544;45.566;10.238;2023-04-16T02:04:59;99292.75;;;10.91;64.02
79138;BME280;68544;45.566;10.238;2023-04-16T02:07:24;99290.84;;;10.85;64.52
79138;BME280;68544;45.566;10.238;2023-04-16T02:09:50;99287.53;;;11.09;63.79
79138;BME280;68544;45.566;10.238;2023-04-16T02:12:16;99287.31;;;11.44;62.05
79138;BME280;68544;45.566;10.238;2023-04-16T02:14:41;99284.84;;;11.23;62.76
79138;BME280;68544;45.566;10.238;2023-04-16T02:17:07;99279.41;;;11.36;62.11
79138;BME280;68544;45.566;10.238;2023-04-16T02:19:32;99292.31;;;11.27;61.95
79138;BME280;68544;45.566;10.238;2023-04-16T02:21:57;99293.97;;;11.08;63.04
79138;BME280;68544;45.566;10.238;2023-04-16T02:24:25;99291.88;;;11.10;62.43
79138;BME280;68544;45.566;10.238;2023-04-16T02:26:50;99291.50;;;11.20;61.68
79138;BME280;68544;45.566;10.238;2023-04-16T02:29:16;99300.66;;;11.13;61.49
79138;BME280;68544;45.566;10.238;2023-04-16T02:31:41;99303.53;;;11.04;62.29
79138;BME280;68544;45.566;10.238;2023-04-16T02:34:07;99299.75;;;10.60;64.49
79138;BME280;68544;45.566;10.238;2023-04-16T02:36:32;99299.16;;;10.77;63.98
79138;BME280;68544;45.566;10.238;2023-04-16T02:38:58;99295.19;;;10.73;64.33
79138;BME280;68544;45.566;10.238;2023-04-16T02:41:23;99308.31;;;10.76;64.57
79138;BME280;68544;45.566;10.238;2023-04-16T02:43:48;99303.34;;;10.99;63.28
79138;BME280;68544;45.566;10.238;2023-04-16T02:46:14;99296.66;;;10.82;64.38
79138;BME280;68544;45.566;10.238;2023-04-16T02:48:39;99294.78;;;10.76;64.78
79138;BME280;68544;45.566;10.238;2023-04-16T02:51:04;99306.44;;;11.09;63.12
79138;BME280;68544;45.566;10.238;2023-04-16T02:53:30;99303.31;;;11.19;62.59
79138;BME280;68544;45.566;10.238;2023-04-16T02:55:55;99296.06;;;11.13;63.12
79138;BME280;68544;45.566;10.238;2023-04-16T02:58:22;99306.66;;;11.21;62.26
79138;BME280;68544;45.566;10.238;2023-04-16T03:00:48;99301.88;;;11.03;62.89
79138;BME280;68544;45.566;10.238;2023-04-16T03:03:13;99308.94;;;11.11;62.15
79138;BME280;68544;45.566;10.238;2023-04-16T03:05:39;99314.34;;;11.04;61.87
79138;BME280;68544;45.566;10.238;2023-04-16T03:08:04;99307.88;;;10.79;62.94
79138;BME280;68544;45.566;10.238;2023-04-16T03:10:30;99310.81;;;10.84;63.14
79138;BME280;68544;45.566;10.238;2023-04-16T03:12:56;99316.59;;;10.81;62.70
79138;BME280;68544;45.566;10.238;2023-04-16T03:15:21;99313.91;;;10.68;63.49
79138;BME280;68544;45.566;10.238;2023-04-16T03:17:46;99323.25;;;10.92;62.24
79138;BME280;68544;45.566;10.238;2023-04-16T03:20:12;99324.66;;;10.55;63.27
79138;BME280;68544;45.566;10.238;2023-04-16T03:22:39;99327.34;;;10.55;63.61
79138;BME280;68544;45.566;10.238;2023-04-16T03:25:06;99326.72;;;10.53;63.65
79138;BME280;68544;45.566;10.238;2023-04-16T03:27:32;99318.47;;;10.74;62.67
79138;BME280;68544;45.566;10.238;2023-04-16T03:29:58;99327.56;;;10.60;62.90
79138;BME280;68544;45.566;10.238;2023-04-16T03:32:23;99335.69;;;10.67;62.01
79138;BME280;68544;45.566;10.238;2023-04-16T03:34:48;99334.06;;;10.85;61.85
79138;BME280;68544;45.566;10.238;2023-04-16T03:37:14;99335.47;;;10.55;62.15
79138;BME280;68544;45.566;10.238;2023-04-16T03:39:39;99344.41;;;10.69;62.43
79138;BME280;68544;45.566;10.238;2023-04-16T03:42:05;99338.97;;;10.49;63.16
79138;BME280;68544;45.566;10.238;2023-04-16T03:44:30;99342.94;;;10.53;63.27
79138;BME280;68544;45.566;10.238;2023-04-16T03:46:55;99341.19;;;10.32;64.38
79138;BME280;68544;45.566;10.238;2023-04-16T03:49:21;99331.59;;;10.23;64.92
79138;BME280;68544;45.566;10.238;2023-04-16T03:51:46;99339.91;;;10.22;64.88
79138;BME280;68544;45.566;10.238;2023-04-16T03:54:12;99339.91;;;10.28;64.80
79138;BME280;68544;45.566;10.238;2023-04-16T03:56:39;99343.13;;;10.45;64.83
79138;BME280;68544;45.566;10.238;2023-04-16T03:59:04;99352.25;;;10.51;64.64
79138;BME280;68544;45.566;10.238;2023-04-16T04:01:29;99345.81;;;10.52;64.55
79138;BME280;68544;45.566;10.238;2023-04-16T04:03:55;99335.97;;;10.31;65.37
79138;BME280;68544;45.566;10.238;2023-04-16T04:06:20;99347.25;;;10.48;64.80
79138;BME280;68544;45.566;10.238;2023-04-16T04:08:45;99311.69;;;10.31;64.61
79138;BME280;68544;45.566;10.238;2023-04-16T04:11:11;99352.91;;;10.59;64.39
79138;BME280;68544;45.566;10.238;2023-04-16T04:13:36;99357.09;;;10.75;63.68
79138;BME280;68544;45.566;10.238;2023-04-16T04:16:01;99360.31;;;10.44;65.00
79138;BME280;68544;45.566;10.238;2023-04-16T04:18:26;99362.34;;;10.29;64.98
79138;BME280;68544;45.566;10.238;2023-04-16T04:20:52;99360.50;;;10.36;64.56
79138;BME280;68544;45.566;10.238;2023-04-16T04:23:17;99359.50;;;10.50;63.54
79138;BME280;68544;45.566;10.238;2023-04-16T04:25:43;99363.47;;;10.54;63.41
79138;BME280;68544;45.566;10.238;2023-04-16T04:28:08;99364.41;;;10.27;63.81
79138;BME280;68544;45.566;10.238;2023-04-16T04:30:33;99369.06;;;10.46;63.03
79138;BME280;68544;45.566;10.238;2023-04-16T04:33:00;99363.22;;;10.36;63.02
79138;BME280;68544;45.566;10.238;2023-04-16T04:35:25;99362.41;;;10.42;63.20
79138;BME280;68544;45.566;10.238;2023-04-16T04:37:50;99372.75;;;10.32;63.65
79138;BME280;68544;45.566;10.238;2023-04-16T04:40:16;99379.47;;;10.49;63.14
79138;BME280;68544;45.566;10.238;2023-04-16T04:42:41;99378.78;;;10.34;63.06
79138;BME280;68544;45.566;10.238;2023-04-16T04:45:07;99380.84;;;10.32;63.19
79138;BME280;68544;45.566;10.238;2023-04-16T04:47:33;99385.34;;;10.25;63.17
79138;BME280;68544;45.566;10.238;2023-04-16T04:49:58;99389.03;;;10.11;63.07
79138;BME280;68544;45.566;10.238;2023-04-16T04:52:23;99383.28;;;9.93;63.79
79138;BME280;68544;45.566;10.238;2023-04-16T04:54:48;99372.56;;;10.06;63.20
79138;BME280;68544;45.566;10.238;2023-04-16T04:57:14;99353.38;;;10.15;63.16
79138;BME280;68544;45.566;10.238;2023-04-16T04:59:39;99364.44;;;9.99;63.87
79138;BME280;68544;45.566;10.238;2023-04-16T05:02:05;99375.13;;;10.14;63.06
79138;BME280;68544;45.566;10.238;2023-04-16T05:04:30;99377.91;;;10.27;62.50
79138;BME280;68544;45.566;10.238;2023-04-16T05:06:56;99350.59;;;10.09;61.67
79138;BME280;68544;45.566;10.238;2023-04-16T05:09:21;99378.50;;;10.22;62.12
79138;BME280;68544;45.566;10.238;2023-04-16T05:11:46;99377.75;;;10.42;61.02
79138;BME280;68544;45.566;10.238;2023-04-16T05:14:12;99376.56;;;10.57;60.28
79138;BME280;68544;45.566;10.238;2023-04-16T05:16:37;99386.44;;;10.37;61.26
79138;BME280;68544;45.566;10.238;2023-04-16T05:19:03;99378.22;;;10.58;60.63
79138;BME280;68544;45.566;10.238;2023-04-16T05:21:28;99382.72;;;10.38;61.64
79138;BME280;68544;45.566;10.238;2023-04-16T05:23:54;99382.00;;;10.64;60.52
79138;BME280;68544;45.566;10.238;2023-04-16T05:26:20;99390.03;;;10.51;61.83
79138;BME280;68544;45.566;10.238;2023-04-16T05:28:45;99388.56;;;10.48;62.35
79138;BME280;68544;45.566;10.238;2023-04-16T05:31:11;99381.56;;;10.60;62.22
79138;BME280;68544;45.566;10.238;2023-04-16T05:33:36;99380.56;;;10.68;62.15
79138;BME280;68544;45.566;10.238;2023-04-16T05:36:01;99382.66;;;10.72;62.01
79138;BME280;68544;45.566;10.238;2023-04-16T05:38:27;99378.91;;;10.73;61.76
79138;BME280;68544;45.566;10.238;2023-04-16T05:40:52;99383.91;;;10.76;61.48
79138;BME280;68544;45.566;10.238;2023-04-16T05:43:17;99389.97;;;11.04;60.81
79138;BME280;68544;45.566;10.238;2023-04-16T05:45:43;99390.97;;;10.77;62.23
79138;BME280;68544;45.566;10.238;2023-04-16T05:48:08;99393.72;;;11.03;61.29
79138;BME280;68544;45.566;10.238;2023-04-16T05:50:34;99391.66;;;11.05;60.72
79138;BME280;68544;45.566;10.238;2023-04-16T05:53:01;99400.41;;;11.21;60.49
79138;BME280;68544;45.566;10.238;2023-04-16T05:55:26;99387.50;;;11.09;60.00
79138;BME280;68544;45.566;10.238;2023-04-16T05:57:51;99401.22;;;11.01;60.76
79138;BME280;68544;45.566;10.238;2023-04-16T06:00:17;99401.81;;;10.90;61.06
79138;BME280;68544;45.566;10.238;2023-04-16T06:02:42;99404.97;;;11.13;60.53
79138;BME280;68544;45.566;10.238;2023-04-16T06:05:08;99402.06;;;11.22;60.72
79138;BME280;68544;45.566;10.238;2023-04-16T06:07:33;99399.34;;;11.22;60.35
79138;BME280;68544;45.566;10.238;2023-04-16T06:09:58;99404.16;;;11.33;59.67
79138;BME280;68544;45.566;10.238;2023-04-16T06:12:24;99404.53;;;11.23;59.69
79138;BME280;68544;45.566;10.238;2023-04-16T06:14:49;99401.25;;;11.41;58.64
79138;BME280;68544;45.566;10.238;2023-04-16T06:17:14;99401.06;;;11.68;58.13
79138;BME280;68544;45.566;10.238;2023-04-16T06:19:40;99406.66;;;11.93;58.14
79138;BME280;68544;45.566;10.238;2023-04-16T06:22:06;99411.22;;;11.99;57.78
79138;BME280;68544;45.566;10.238;2023-04-16T06:24:31;99410.78;;;12.22;57.25
79138;BME280;68544;45.566;10.238;2023-04-16T06:26:57;99410.81;;;11.96;57.13
79138;BME280;68544;45.566;10.238;2023-04-16T06:29:22;99418.47;;;12.18;57.49
79138;BME280;68544;45.566;10.238;2023-04-16T06:31:47;99420.00;;;11.88;58.06
79138;BME280;68544;45.566;10.238;2023-04-16T06:34:13;99412.25;;;12.11;57.91
79138;BME280;68544;45.566;10.238;2023-04-16T06:36:38;99418.25;;;12.26;57.50
79138;BME280;68544;45.566;10.238;2023-04-16T06:39:04;99408.22;;;12.33;57.19
79138;BME280;68544;45.566;10.238;2023-04-16T06:41:29;99408.25;;;12.20;57.43
79138;BME280;68544;45.566;10.238;2023-04-16T06:43:54;99411.06;;;12.51;56.17
79138;BME280;68544;45.566;10.238;2023-04-16T06:46:20;99416.44;;;12.64;55.42
79138;BME280;68544;45.566;10.238;2023-04-16T06:48:45;99380.09;;;12.41;55.67
79138;BME280;68544;45.566;10.238;2023-04-16T06:51:11;99422.59;;;12.91;54.06
79138;BME280;68544;45.566;10.238;2023-04-16T06:53:37;99419.31;;;12.83;53.86
79138;BME280;68544;45.566;10.238;2023-04-16T06:56:03;99414.53;;;12.78;54.32
79138;BME280;68544;45.566;10.238;2023-04-16T06:58:28;99412.53;;;13.05;53.55
79138;BME280;68544;45.566;10.238;2023-04-16T07:00:53;99416.03;;;13.12;53.96
79138;BME280;68544;45.566;10.238;2023-04-16T07:03:19;99421.13;;;13.33;53.20
79138;BME280;68544;45.566;10.238;2023-04-16T07:05:44;99418.66;;;13.25;54.02
79138;BME280;68544;45.566;10.238;2023-04-16T07:08:09;99423.78;;;13.39;54.08
79138;BME280;68544;45.566;10.238;2023-04-16T07:10:35;99435.97;;;13.55;53.89
79138;BME280;68544;45.566;10.238;2023-04-16T07:13:00;99436.66;;;13.75;53.61
79138;BME280;68544;45.566;10.238;2023-04-16T07:15:26;99425.56;;;13.52;54.46
79138;BME280;68544;45.566;10.238;2023-04-16T07:17:51;99431.94;;;13.89;53.42
79138;BME280;68544;45.566;10.238;2023-04-16T07:20:16;99426.81;;;14.23;52.55
79138;BME280;68544;45.566;10.238;2023-04-16T07:22:42;99425.84;;;14.54;50.83
79138;BME280;68544;45.566;10.238;2023-04-16T07:25:08;99429.91;;;14.81;49.94
79138;BME280;68544;45.566;10.238;2023-04-16T07:27:33;99424.34;;;15.06;49.63
79138;BME280;68544;45.566;10.238;2023-04-16T07:29:59;99427.13;;;15.18;49.05
79138;BME280;68544;45.566;10.238;2023-04-16T07:32:25;99429.41;;;15.32;49.19
79138;BME280;68544;45.566;10.238;2023-04-16T07:34:50;99432.81;;;15.57;48.27
79138;BME280;68544;45.566;10.238;2023-04-16T07:37:15;99444.22;;;15.77;47.69
79138;BME280;68544;45.566;10.238;2023-04-16T07:39:41;99446.63;;;15.86;47.15
79138;BME280;68544;45.566;10.238;2023-04-16T07:42:06;99443.00;;;15.62;46.76
79138;BME280;68544;45.566;10.238;2023-04-16T07:44:31;99448.59;;;15.90;46.97
79138;BME280;68544;45.566;10.238;2023-04-16T07:46:57;99445.78;;;16.20;44.34
79138;BME280;68544;45.566;10.238;2023-04-16T07:49:22;99439.25;;;16.67;43.41
79138;BME280;68544;45.566;10.238;2023-04-16T07:51:47;99444.81;;;16.72;43.80
79138;BME280;68544;45.566;10.238;2023-04-16T07:54:13;99464.72;;;16.84;42.43
79138;BME280;68544;45.566;10.238;2023-04-16T07:56:38;99454.38;;;17.26;41.15
79138;BME280;68544;45.566;10.238;2023-04-16T07:59:03;99459.03;;;17.42;40.81
79138;BME280;68544;45.566;10.238;2023-04-16T08:01:29;99469.41;;;17.85;40.11
79138;BME280;68544;45.566;10.238;2023-04-16T08:03:55;99472.19;;;18.56;39.03
79138;BME280;68544;45.566;10.238;2023-04-16T08:06:20;99472.03;;;18.84;37.83
79138;BME280;68544;45.566;10.238;2023-04-16T08:08:45;99462.13;;;19.75;35.93
79138;BME280;68544;45.566;10.238;2023-04-16T08:11:11;99462.69;;;23.49;27.93
79138;BME280;68544;45.566;10.238;2023-04-16T08:13:36;99458.53;;;25.29;23.69
79138;BME280;68544;45.566;10.238;2023-04-16T08:16:02;99459.75;;;26.94;21.12
79138;BME280;68544;45.566;10.238;2023-04-16T08:18:27;99456.16;;;27.07;20.33
79138;BME280;68544;45.566;10.238;2023-04-16T08:20:53;99454.50;;;28.49;19.26
79138;BME280;68544;45.566;10.238;2023-04-16T08:23:19;99448.78;;;30.06;17.02
79138;BME280;68544;45.566;10.238;2023-04-16T08:25:46;99451.06;;;30.38;17.03
79138;BME280;68544;45.566;10.238;2023-04-16T08:28:11;99457.56;;;30.59;16.57
79138;BME280;68544;45.566;10.238;2023-04-16T08:30:37;99458.38;;;30.68;16.50
79138;BME280;68544;45.566;10.238;2023-04-16T08:33:02;99450.25;;;32.54;14.69
79138;BME280;68544;45.566;10.238;2023-04-16T08:35:28;99450.09;;;31.27;14.93
79138;BME280;68544;45.566;10.238;2023-04-16T08:37:53;99462.03;;;29.75;17.09
79138;BME280;68544;45.566;10.238;2023-04-16T08:40:19;99463.22;;;27.26;19.98
79138;BME280;68544;45.566;10.238;2023-04-16T08:42:44;99461.06;;;25.67;22.12
79138;BME280;68544;45.566;10.238;2023-04-16T08:45:14;99468.63;;;24.96;23.83
79138;BME280;68544;45.566;10.238;2023-04-16T08:47:44;99462.09;;;24.29;24.51
79138;BME280;68544;45.566;10.238;2023-04-16T08:50:10;99465.44;;;23.93;24.99
79138;BME280;68544;45.566;10.238;2023-04-16T08:53:02;99462.00;;;24.11;25.16
79138;BME280;68544;45.566;10.238;2023-04-16T08:55:46;99458.34;;;23.77;25.03
79138;BME280;68544;45.566;10.238;2023-04-16T08:58:19;99462.75;;;23.29;24.80
79138;BME280;68544;45.566;10.238;2023-04-16T09:00:47;99460.38;;;24.10;24.64
79138;BME280;68544;45.566;10.238;2023-04-16T09:03:12;99461.94;;;26.19;21.01
79138;BME280;68544;45.566;10.238;2023-04-16T09:05:38;99463.63;;;28.41;18.47
79138;BME280;68544;45.566;10.238;2023-04-16T09:08:05;99462.22;;;30.38;16.53
79138;BME280;68544;45.566;10.238;2023-04-16T09:10:31;99466.81;;;32.06;14.89
79138;BME280;68544;45.566;10.238;2023-04-16T09:12:56;99464.22;;;33.59;13.13
79138;BME280;68544;45.566;10.238;2023-04-16T09:15:22;99463.09;;;34.83;12.11
79138;BME280;68544;45.566;10.238;2023-04-16T09:17:49;99467.97;;;33.51;13.05
79138;BME280;68544;45.566;10.238;2023-04-16T09:20:15;99465.41;;;33.22;12.46
79138;BME280;68544;45.566;10.238;2023-04-16T09:22:41;99472.31;;;34.12;12.51
79138;BME280;68544;45.566;10.238;2023-04-16T09:25:09;99468.69;;;33.00;12.64
79138;BME280;68544;45.566;10.238;2023-04-16T09:27:35;99468.50;;;31.77;14.34
79138;BME280;68544;45.566;10.238;2023-04-16T09:30:17;99469.63;;;35.18;11.33
79138;BME280;68544;45.566;10.238;2023-04-16T09:32:45;99477.16;;;36.53;10.58
79138;BME280;68544;45.566;10.238;2023-04-16T09:35:11;99467.09;;;37.95;9.52
79138;BME280;68544;45.566;10.238;2023-04-16T09:37:36;99468.19;;;35.24;10.94
79138;BME280;68544;45.566;10.238;2023-04-16T09:40:03;99465.56;;;37.00;9.96
79138;BME280;68544;45.566;10.238;2023-04-16T09:42:30;99461.84;;;36.73;10.24
79138;BME280;68544;45.566;10.238;2023-04-16T09:44:56;99468.75;;;37.44;9.33
79138;BME280;68544;45.566;10.238;2023-04-16T09:47:24;99472.91;;;36.24;10.58
79138;BME280;68544;45.566;10.238;2023-04-16T09:49:50;99469.94;;;37.43;9.16
79138;BME280;68544;45.566;10.238;2023-04-16T09:52:19;99472.38;;;37.21;9.58
79138;BME280;68544;45.566;10.238;2023-04-16T09:54:51;99468.38;;;39.04;7.88
79138;BME280;68544;45.566;10.238;2023-04-16T09:57:21;99460.44;;;38.77;8.42
79138;BME280;68544;45.566;10.238;2023-04-16T09:59:51;99469.59;;;37.74;8.47
79138;BME280;68544;45.566;10.238;2023-04-16T10:02:16;99464.06;;;35.88;10.04
79138;BME280;68544;45.566;10.238;2023-04-16T10:04:46;99461.66;;;38.09;8.64
79138;BME280;68544;45.566;10.238;2023-04-16T10:07:12;99464.31;;;38.61;8.86
79138;BME280;68544;45.566;10.238;2023-04-16T10:09:38;99455.25;;;38.12;8.13
79138;BME280;68544;45.566;10.238;2023-04-16T10:12:07;99465.63;;;38.05;8.61
79138;BME280;68544;45.566;10.238;2023-04-16T10:14:33;99464.31;;;37.69;9.25
79138;BME280;68544;45.566;10.238;2023-04-16T10:16:59;99465.75;;;36.27;8.98
79138;BME280;68544;45.566;10.238;2023-04-16T10:19:26;99454.56;;;37.63;8.59
79138;BME280;68544;45.566;10.238;2023-04-16T10:21:53;99448.44;;;38.46;8.17
79138;BME280;68544;45.566;10.238;2023-04-16T10:24:19;99443.41;;;38.00;8.07
79138;BME280;68544;45.566;10.238;2023-04-16T10:26:45;99439.44;;;38.04;8.31
79138;BME280;68544;45.566;10.238;2023-04-16T10:29:11;99438.44;;;38.23;7.78
79138;BME280;68544;45.566;10.238;2023-04-16T10:31:38;99440.84;;;37.12;9.02
79138;BME280;68544;45.566;10.238;2023-04-16T10:34:06;99444.41;;;38.18;8.18
79138;BME280;68544;45.566;10.238;2023-04-16T10:36:36;99444.22;;;38.00;8.92
79138;BME280;68544;45.566;10.238;2023-04-16T10:39:01;99435.63;;;37.89;8.58
79138;BME280;68544;45.566;10.238;2023-04-16T10:41:27;99428.31;;;38.92;8.56
79138;BME280;68544;45.566;10.238;2023-04-16T10:44:06;99437.28;;;37.68;8.85
79138;BME280;68544;45.566;10.238;2023-04-16T10:46:36;99426.56;;;37.25;9.64
79138;BME280;68544;45.566;10.238;2023-04-16T10:49:24;99427.56;;;37.88;8.92
79138;BME280;68544;45.566;10.238;2023-04-16T10:52:01;99419.63;;;36.51;9.64
79138;BME280;68544;45.566;10.238;2023-04-16T10:54:34;99419.81;;;37.06;9.53
79138;BME280;68544;45.566;10.238;2023-04-16T10:57:02;99426.50;;;37.44;9.10
79138;BME280;68544;45.566;10.238;2023-04-16T10:59:34;99417.44;;;36.21;10.29
79138;BME280;68544;45.566;10.238;2023-04-16T11:02:22;99421.81;;;36.83;10.19
79138;BME280;68544;45.566;10.238;2023-04-16T11:04:47;99425.88;;;35.67;10.36
79138;BME280;68544;45.566;10.238;2023-04-16T11:07:32;99420.94;;;35.45;10.51
79138;BME280;68544;45.566;10.238;2023-04-16T11:09:59;99418.41;;;36.52;10.02
79138;BME280;68544;45.566;10.238;2023-04-16T11:12:40;99405.44;;;36.66;10.03
79138;BME280;68544;45.566;10.238;2023-04-16T11:15:06;99402.72;;;34.58;11.64
79138;BME280;68544;45.566;10.238;2023-04-16T11:20:09;99416.03;;;33.66;12.86
79138;BME280;68544;45.566;10.238;2023-04-16T11:22:35;99423.69;;;33.81;12.29
79138;BME280;68544;45.566;10.238;2023-04-16T11:25:03;99411.28;;;33.94;12.70
79138;BME280;68544;45.566;10.238;2023-04-16T11:27:29;99406.50;;;33.82;13.05
79138;BME280;68544;45.566;10.238;2023-04-16T11:30:05;99411.50;;;32.77;13.72
79138;BME280;68544;45.566;10.238;2023-04-16T11:32:33;99411.69;;;34.08;12.50
79138;BME280;68544;45.566;10.238;2023-04-16T11:35:00;99405.28;;;34.07;12.81
79138;BME280;68544;45.566;10.238;2023-04-16T11:37:32;99415.22;;;33.65;13.45
79138;BME280;68544;45.566;10.238;2023-04-16T11:40:02;99411.63;;;33.92;13.42
79138;BME280;68544;45.566;10.238;2023-04-16T11:42:31;99406.38;;;32.91;13.54
79138;BME280;68544;45.566;10.238;2023-04-16T11:44:58;99407.13;;;34.15;12.91
79138;BME280;68544;45.566;10.238;2023-04-16T11:47:27;99412.66;;;33.48;12.99
79138;BME280;68544;45.566;10.238;2023-04-16T11:49:53;99399.00;;;33.46;13.13
79138;BME280;68544;45.566;10.238;2023-04-16T11:52:28;99398.81;;;33.15;13.99
79138;BME280;68544;45.566;10.238;2023-04-16T11:54:54;99398.03;;;31.31;15.69
79138;BME280;68544;45.566;10.238;2023-04-16T11:59:49;99414.41;;;29.76;17.05
79138;BME280;68544;45.566;10.238;2023-04-16T12:02:14;99398.44;;;29.17;17.78
79138;BME280;68544;45.566;10.238;2023-04-16T12:04:40;99402.03;;;28.78;18.26
79138;BME280;68544;45.566;10.238;2023-04-16T12:07:13;99398.31;;;28.52;18.41
79138;BME280;68544;45.566;10.238;2023-04-16T12:09:40;99402.03;;;27.94;19.32
79138;BME280;68544;45.566;10.238;2023-04-16T12:12:23;99394.78;;;27.00;20.35
79138;BME280;68544;45.566;10.238;2023-04-16T12:14:49;99396.50;;;27.23;20.61
79138;BME280;68544;45.566;10.238;2023-04-16T12:17:25;99392.34;;;25.93;21.70
79138;BME280;68544;45.566;10.238;2023-04-16T12:20:01;99396.78;;;25.75;22.05
79138;BME280;68544;45.566;10.238;2023-04-16T12:22:28;99401.72;;;25.60;22.45
79138;BME280;68544;45.566;10.238;2023-04-16T12:24:58;99406.97;;;25.61;22.30
79138;BME280;68544;45.566;10.238;2023-04-16T12:27:23;99408.38;;;25.59;22.14
79138;BME280;68544;45.566;10.238;2023-04-16T12:30:04;99394.00;;;25.20;22.90
79138;BME280;68544;45.566;10.238;2023-04-16T12:32:31;99397.38;;;25.35;22.72
79138;BME280;68544;45.566;10.238;2023-04-16T12:34:56;99392.66;;;24.70;23.66
79138;BME280;68544;45.566;10.238;2023-04-16T12:37:22;99396.84;;;24.67;23.59
79138;BME280;68544;45.566;10.238;2023-04-16T12:39:47;99388.75;;;24.52;23.89
79138;BME280;68544;45.566;10.238;2023-04-16T12:42:12;99394.97;;;24.39;24.37
79138;BME280;68544;45.566;10.238;2023-04-16T12:44:39;99396.94;;;23.27;25.52
79138;BME280;68544;45.566;10.238;2023-04-16T12:47:04;99385.69;;;23.96;25.19
79138;BME280;68544;45.566;10.238;2023-04-16T12:49:30;99386.00;;;23.90;25.71
79138;BME280;68544;45.566;10.238;2023-04-16T12:51:55;99383.34;;;23.46;26.28